Allen, Indiana
Current Conditions -  °F | °C
As of 4:55 PM on Sunday 23 Nov 2014 (Local Time) from KGWB Reporting Station
Moderate Rain Moderate Rain  
Wind Chill: 11°   Ceiling: 300
Heat Index: 11°   Visibility: 3mi
Dew Point:   Wind: 5mph
Humidity: 88%   Direction: 100°E
Pressure: 29.59"   Gusts: NA
Location:  41.4608°N, 85.2531°W
Report Text: KGWB 232155Z AUTO 10004KT 3SM RA BKN003 BKN017 OVC026 11/09 A2959 RMK AO2 P0023
Loading
Personal Weather Stations






























Interactive Weather Map New forecast layout! Learn more

10-Day Weather Forecast

Advertisements
Track Severe Weather on mobile